FGD weather

Fderik Airport
Fderik, Tiris Zemmour Region, Mauritania

Public forecast

Using degrees Celsius for public forecast. Weather courtesy of forecast.io.

METAR (pilot weather report)

Report is more than 6 hours old.

Closest report is Tazadit Airport, 14.8 nm (27.4 km) ENE. Retrieved 2019/05/06 12:00 UTC (15 days ago):

GQPZ 061200Z 36006KT CAVOK 29/11 Q1018

TAF (pilot weather forecast)

Closest forecast is Dakhla Airport, 187.5 nm (347.2 km) WNW. Retrieved 2019/05/21 06:00 UTC (4 hours ago):

TAF GMMH 210500Z 2106/2212 01018KT CAVOK